sensor_id;sensor_type;location;lat;lon;timestamp;temperature;humidity
22974;DHT22;11653;50.848;4.584;2022-12-10T00:01:42;2.00;99.90
22974;DHT22;11653;50.848;4.584;2022-12-10T00:04:09;2.00;99.90
22974;DHT22;11653;50.848;4.584;2022-12-10T00:06:36;2.00;99.90
22974;DHT22;11653;50.848;4.584;2022-12-10T00:09:04;1.80;99.90
22974;DHT22;11653;50.848;4.584;2022-12-10T00:11:30;1.70;99.90
22974;DHT22;11653;50.848;4.584;2022-12-10T00:13:56;1.60;99.90
22974;DHT22;11653;50.848;4.584;2022-12-10T00:16:24;1.60;99.90
22974;DHT22;11653;50.848;4.584;2022-12-10T00:18:51;1.60;99.90
22974;DHT22;11653;50.848;4.584;2022-12-10T00:21:25;1.60;99.90
22974;DHT22;11653;50.848;4.584;2022-12-10T00:23:51;1.50;99.90
22974;DHT22;11653;50.848;4.584;2022-12-10T00:26:23;1.60;99.90
22974;DHT22;11653;50.848;4.584;2022-12-10T00:28:50;1.60;99.90
22974;DHT22;11653;50.848;4.584;2022-12-10T00:31:21;1.80;99.90
22974;DHT22;11653;50.848;4.584;2022-12-10T00:33:47;1.90;99.90
22974;DHT22;11653;50.848;4.584;2022-12-10T00:36:19;1.70;99.90
22974;DHT22;11653;50.848;4.584;2022-12-10T00:38:46;1.80;99.90
22974;DHT22;11653;50.848;4.584;2022-12-10T00:41:12;1.80;99.90
22974;DHT22;11653;50.848;4.584;2022-12-10T00:43:39;1.80;99.90
22974;DHT22;11653;50.848;4.584;2022-12-10T00:46:05;1.80;99.90
22974;DHT22;11653;50.848;4.584;2022-12-10T00:48:31;1.50;99.90
22974;DHT22;11653;50.848;4.584;2022-12-10T00:51:12;1.40;99.90
22974;DHT22;11653;50.848;4.584;2022-12-10T00:53:39;1.50;99.90
22974;DHT22;11653;50.848;4.584;2022-12-10T00:56:05;1.40;99.90
22974;DHT22;11653;50.848;4.584;2022-12-10T00:58:33;1.40;99.90
22974;DHT22;11653;50.848;4.584;2022-12-10T01:03:38;1.50;99.90
22974;DHT22;11653;50.848;4.584;2022-12-10T01:06:31;1.60;99.90
22974;DHT22;11653;50.848;4.584;2022-12-10T01:09:00;1.90;99.90
22974;DHT22;11653;50.848;4.584;2022-12-10T01:11:29;1.80;99.90
22974;DHT22;11653;50.848;4.584;2022-12-10T01:13:56;1.70;99.90
22974;DHT22;11653;50.848;4.584;2022-12-10T01:16:22;1.70;99.90
22974;DHT22;11653;50.848;4.584;2022-12-10T01:18:48;1.80;99.90
22974;DHT22;11653;50.848;4.584;2022-12-10T01:21:18;1.80;99.90
22974;DHT22;11653;50.848;4.584;2022-12-10T01:23:46;1.70;99.90
22974;DHT22;11653;50.848;4.584;2022-12-10T01:26:15;1.80;99.90
22974;DHT22;11653;50.848;4.584;2022-12-10T01:28:42;1.80;99.90
22974;DHT22;11653;50.848;4.584;2022-12-10T01:31:13;1.70;99.90
22974;DHT22;11653;50.848;4.584;2022-12-10T01:33:40;1.60;99.90
22974;DHT22;11653;50.848;4.584;2022-12-10T01:36:08;1.60;99.90
22974;DHT22;11653;50.848;4.584;2022-12-10T01:38:36;1.60;99.90
22974;DHT22;11653;50.848;4.584;2022-12-10T01:41:02;1.70;99.90
22974;DHT22;11653;50.848;4.584;2022-12-10T01:43:58;1.80;99.90
22974;DHT22;11653;50.848;4.584;2022-12-10T01:46:28;1.90;99.90
22974;DHT22;11653;50.848;4.584;2022-12-10T01:48:54;1.80;99.90
22974;DHT22;11653;50.848;4.584;2022-12-10T01:51:21;1.70;99.90
22974;DHT22;11653;50.848;4.584;2022-12-10T01:53:47;1.60;99.90
22974;DHT22;11653;50.848;4.584;2022-12-10T01:56:16;1.50;99.90
22974;DHT22;11653;50.848;4.584;2022-12-10T01:58:42;1.50;99.90
22974;DHT22;11653;50.848;4.584;2022-12-10T02:11:48;1.70;99.90
22974;DHT22;11653;50.848;4.584;2022-12-10T02:14:45;1.70;99.90
22974;DHT22;11653;50.848;4.584;2022-12-10T02:17:17;1.60;99.90
22974;DHT22;11653;50.848;4.584;2022-12-10T02:22:37;1.60;99.90
22974;DHT22;11653;50.848;4.584;2022-12-10T02:25:06;1.50;99.90
22974;DHT22;11653;50.848;4.584;2022-12-10T02:27:57;1.40;99.90
22974;DHT22;11653;50.848;4.584;2022-12-10T02:30:25;1.30;99.90
22974;DHT22;11653;50.848;4.584;2022-12-10T02:32:51;1.30;99.90
22974;DHT22;11653;50.848;4.584;2022-12-10T02:35:25;1.30;99.90
22974;DHT22;11653;50.848;4.584;2022-12-10T02:37:56;1.40;99.90
22974;DHT22;11653;50.848;4.584;2022-12-10T02:40:29;1.40;99.90
22974;DHT22;11653;50.848;4.584;2022-12-10T02:42:56;1.50;99.90
22974;DHT22;11653;50.848;4.584;2022-12-10T02:45:24;1.60;99.90
22974;DHT22;11653;50.848;4.584;2022-12-10T02:47:51;1.50;99.90
22974;DHT22;11653;50.848;4.584;2022-12-10T02:50:19;1.50;99.90
22974;DHT22;11653;50.848;4.584;2022-12-10T02:52:46;1.60;99.90
22974;DHT22;11653;50.848;4.584;2022-12-10T02:55:13;1.50;99.90
22974;DHT22;11653;50.848;4.584;2022-12-10T03:00:21;1.50;99.90
22974;DHT22;11653;50.848;4.584;2022-12-10T03:08:52;1.50;99.90
22974;DHT22;11653;50.848;4.584;2022-12-10T03:11:22;1.40;99.90
22974;DHT22;11653;50.848;4.584;2022-12-10T03:13:55;1.20;99.90
22974;DHT22;11653;50.848;4.584;2022-12-10T03:16:24;1.20;99.90
22974;DHT22;11653;50.848;4.584;2022-12-10T03:18:53;1.20;99.90
22974;DHT22;11653;50.848;4.584;2022-12-10T03:21:20;1.20;99.90
22974;DHT22;11653;50.848;4.584;2022-12-10T03:23:49;1.30;99.90
22974;DHT22;11653;50.848;4.584;2022-12-10T03:26:16;1.60;99.90
22974;DHT22;11653;50.848;4.584;2022-12-10T03:28:47;1.60;99.90
22974;DHT22;11653;50.848;4.584;2022-12-10T03:31:15;1.60;99.90
22974;DHT22;11653;50.848;4.584;2022-12-10T03:33:42;1.50;99.90
22974;DHT22;11653;50.848;4.584;2022-12-10T03:36:09;1.30;99.90
22974;DHT22;11653;50.848;4.584;2022-12-10T03:38:36;1.30;99.90
22974;DHT22;11653;50.848;4.584;2022-12-10T03:41:03;1.40;99.90
22974;DHT22;11653;50.848;4.584;2022-12-10T03:43:29;1.20;99.90
22974;DHT22;11653;50.848;4.584;2022-12-10T03:45:54;1.30;99.90
22974;DHT22;11653;50.848;4.584;2022-12-10T03:48:20;1.30;99.90
22974;DHT22;11653;50.848;4.584;2022-12-10T03:50:45;1.20;99.90
22974;DHT22;11653;50.848;4.584;2022-12-10T03:53:11;1.40;99.90
22974;DHT22;11653;50.848;4.584;2022-12-10T03:55:37;1.50;99.90
22974;DHT22;11653;50.848;4.584;2022-12-10T03:58:03;1.60;99.90
22974;DHT22;11653;50.848;4.584;2022-12-10T04:00:28;1.50;99.90
22974;DHT22;11653;50.848;4.584;2022-12-10T04:02:54;1.40;99.90
22974;DHT22;11653;50.848;4.584;2022-12-10T04:05:20;1.50;99.90
22974;DHT22;11653;50.848;4.584;2022-12-10T04:07:46;1.30;99.90
22974;DHT22;11653;50.848;4.584;2022-12-10T04:10:11;1.30;99.90
22974;DHT22;11653;50.848;4.584;2022-12-10T04:12:38;1.50;99.90
22974;DHT22;11653;50.848;4.584;2022-12-10T04:15:04;1.50;99.90
22974;DHT22;11653;50.848;4.584;2022-12-10T04:17:48;1.40;99.90
22974;DHT22;11653;50.848;4.584;2022-12-10T04:20:14;1.40;99.90
22974;DHT22;11653;50.848;4.584;2022-12-10T04:22:58;1.40;99.90
22974;DHT22;11653;50.848;4.584;2022-12-10T04:25:42;1.40;99.90
22974;DHT22;11653;50.848;4.584;2022-12-10T04:28:27;1.40;99.90
22974;DHT22;11653;50.848;4.584;2022-12-10T04:30:52;1.50;99.90
22974;DHT22;11653;50.848;4.584;2022-12-10T04:33:18;1.50;99.90
22974;DHT22;11653;50.848;4.584;2022-12-10T04:35:44;1.40;99.90
22974;DHT22;11653;50.848;4.584;2022-12-10T04:38:09;1.60;99.90
22974;DHT22;11653;50.848;4.584;2022-12-10T04:40:35;1.50;99.90
22974;DHT22;11653;50.848;4.584;2022-12-10T04:43:01;1.60;99.90
22974;DHT22;11653;50.848;4.584;2022-12-10T04:45:26;1.60;99.90
22974;DHT22;11653;50.848;4.584;2022-12-10T04:47:52;1.60;99.90
22974;DHT22;11653;50.848;4.584;2022-12-10T04:50:17;1.60;99.90
22974;DHT22;11653;50.848;4.584;2022-12-10T04:52:43;1.50;99.90
22974;DHT22;11653;50.848;4.584;2022-12-10T04:55:09;1.70;99.90
22974;DHT22;11653;50.848;4.584;2022-12-10T04:57:34;1.80;99.90
22974;DHT22;11653;50.848;4.584;2022-12-10T05:00:00;1.70;99.90
22974;DHT22;11653;50.848;4.584;2022-12-10T05:02:25;1.50;99.90
22974;DHT22;11653;50.848;4.584;2022-12-10T05:04:51;1.60;99.90
22974;DHT22;11653;50.848;4.584;2022-12-10T05:07:17;1.60;99.90
22974;DHT22;11653;50.848;4.584;2022-12-10T05:09:42;1.70;99.90
22974;DHT22;11653;50.848;4.584;2022-12-10T05:12:08;1.60;99.90
22974;DHT22;11653;50.848;4.584;2022-12-10T05:14:33;1.50;99.90
22974;DHT22;11653;50.848;4.584;2022-12-10T05:16:59;1.30;99.90
22974;DHT22;11653;50.848;4.584;2022-12-10T05:19:25;1.40;99.90
22974;DHT22;11653;50.848;4.584;2022-12-10T05:21:54;1.50;99.90
22974;DHT22;11653;50.848;4.584;2022-12-10T05:24:38;1.50;99.90
22974;DHT22;11653;50.848;4.584;2022-12-10T05:27:04;1.30;99.90
22974;DHT22;11653;50.848;4.584;2022-12-10T05:29:32;1.30;99.90
22974;DHT22;11653;50.848;4.584;2022-12-10T05:31:58;1.30;99.90
22974;DHT22;11653;50.848;4.584;2022-12-10T05:34:24;1.40;99.90
22974;DHT22;11653;50.848;4.584;2022-12-10T05:36:49;1.50;99.90
22974;DHT22;11653;50.848;4.584;2022-12-10T05:39:15;1.40;99.90
22974;DHT22;11653;50.848;4.584;2022-12-10T05:41:41;1.40;99.90
22974;DHT22;11653;50.848;4.584;2022-12-10T05:44:09;1.60;99.90
22974;DHT22;11653;50.848;4.584;2022-12-10T05:46:35;1.70;99.90
22974;DHT22;11653;50.848;4.584;2022-12-10T05:49:03;1.50;99.90
22974;DHT22;11653;50.848;4.584;2022-12-10T05:51:32;1.40;99.90
22974;DHT22;11653;50.848;4.584;2022-12-10T05:53:59;1.40;99.90
22974;DHT22;11653;50.848;4.584;2022-12-10T05:56:26;1.40;99.90
22974;DHT22;11653;50.848;4.584;2022-12-10T05:58:55;1.40;99.90
22974;DHT22;11653;50.848;4.584;2022-12-10T06:01:25;1.30;99.90
22974;DHT22;11653;50.848;4.584;2022-12-10T06:03:51;1.30;99.90
22974;DHT22;11653;50.848;4.584;2022-12-10T06:06:29;1.30;99.90
22974;DHT22;11653;50.848;4.584;2022-12-10T06:08:56;1.30;99.90
22974;DHT22;11653;50.848;4.584;2022-12-10T06:11:22;1.30;99.90
22974;DHT22;11653;50.848;4.584;2022-12-10T06:13:48;1.40;99.90
22974;DHT22;11653;50.848;4.584;2022-12-10T06:16:14;1.40;99.90
22974;DHT22;11653;50.848;4.584;2022-12-10T06:18:40;1.40;99.90
22974;DHT22;11653;50.848;4.584;2022-12-10T06:21:08;1.40;99.90
22974;DHT22;11653;50.848;4.584;2022-12-10T06:23:35;1.40;99.90
22974;DHT22;11653;50.848;4.584;2022-12-10T06:26:22;1.50;99.90
22974;DHT22;11653;50.848;4.584;2022-12-10T06:28:49;1.50;99.90
22974;DHT22;11653;50.848;4.584;2022-12-10T06:31:15;1.70;99.90
22974;DHT22;11653;50.848;4.584;2022-12-10T06:33:41;1.80;99.90
22974;DHT22;11653;50.848;4.584;2022-12-10T06:36:09;1.70;99.90
22974;DHT22;11653;50.848;4.584;2022-12-10T06:38:35;1.70;99.90
22974;DHT22;11653;50.848;4.584;2022-12-10T06:41:05;1.70;99.90
22974;DHT22;11653;50.848;4.584;2022-12-10T06:43:31;1.70;99.90
22974;DHT22;11653;50.848;4.584;2022-12-10T06:45:56;1.60;99.90
22974;DHT22;11653;50.848;4.584;2022-12-10T06:48:22;1.50;99.90
22974;DHT22;11653;50.848;4.584;2022-12-10T06:50:48;1.40;99.90
22974;DHT22;11653;50.848;4.584;2022-12-10T06:53:14;1.40;99.90
22974;DHT22;11653;50.848;4.584;2022-12-10T06:55:39;1.40;99.90
22974;DHT22;11653;50.848;4.584;2022-12-10T06:58:05;1.50;99.90
22974;DHT22;11653;50.848;4.584;2022-12-10T07:00:31;1.60;99.90
22974;DHT22;11653;50.848;4.584;2022-12-10T07:02:57;1.60;99.90
22974;DHT22;11653;50.848;4.584;2022-12-10T07:05:23;1.60;99.90
22974;DHT22;11653;50.848;4.584;2022-12-10T07:07:48;1.70;99.90
22974;DHT22;11653;50.848;4.584;2022-12-10T07:10:14;1.60;99.90
22974;DHT22;11653;50.848;4.584;2022-12-10T07:12:40;1.50;99.90
22974;DHT22;11653;50.848;4.584;2022-12-10T07:15:06;1.40;99.90
22974;DHT22;11653;50.848;4.584;2022-12-10T07:17:32;1.30;99.90
22974;DHT22;11653;50.848;4.584;2022-12-10T07:19:58;1.30;99.90
22974;DHT22;11653;50.848;4.584;2022-12-10T07:22:23;1.30;99.90
22974;DHT22;11653;50.848;4.584;2022-12-10T07:24:49;1.30;99.90
22974;DHT22;11653;50.848;4.584;2022-12-10T07:27:15;1.60;99.90
22974;DHT22;11653;50.848;4.584;2022-12-10T07:29:41;1.70;99.90
22974;DHT22;11653;50.848;4.584;2022-12-10T07:32:07;1.60;99.90
22974;DHT22;11653;50.848;4.584;2022-12-10T07:34:32;1.60;99.90
22974;DHT22;11653;50.848;4.584;2022-12-10T07:36:58;1.50;99.90
22974;DHT22;11653;50.848;4.584;2022-12-10T07:39:24;1.40;99.90
22974;DHT22;11653;50.848;4.584;2022-12-10T07:41:51;1.30;99.90
22974;DHT22;11653;50.848;4.584;2022-12-10T07:44:19;1.20;99.90
22974;DHT22;11653;50.848;4.584;2022-12-10T07:46:47;1.40;99.90
22974;DHT22;11653;50.848;4.584;2022-12-10T07:49:13;1.50;99.90
22974;DHT22;11653;50.848;4.584;2022-12-10T07:51:39;1.40;99.90
22974;DHT22;11653;50.848;4.584;2022-12-10T07:54:04;1.30;99.90
22974;DHT22;11653;50.848;4.584;2022-12-10T07:56:30;1.30;99.90
22974;DHT22;11653;50.848;4.584;2022-12-10T07:58:56;1.20;99.90
22974;DHT22;11653;50.848;4.584;2022-12-10T08:01:24;1.20;99.90
22974;DHT22;11653;50.848;4.584;2022-12-10T08:03:51;1.40;99.90
22974;DHT22;11653;50.848;4.584;2022-12-10T08:06:19;1.40;99.90
22974;DHT22;11653;50.848;4.584;2022-12-10T08:08:46;1.40;99.90
22974;DHT22;11653;50.848;4.584;2022-12-10T08:11:13;1.40;99.90
22974;DHT22;11653;50.848;4.584;2022-12-10T08:13:40;1.40;99.90
22974;DHT22;11653;50.848;4.584;2022-12-10T08:16:10;1.40;99.90
22974;DHT22;11653;50.848;4.584;2022-12-10T08:18:38;1.50;99.90
22974;DHT22;11653;50.848;4.584;2022-12-10T08:21:13;1.50;99.90
22974;DHT22;11653;50.848;4.584;2022-12-10T08:23:40;1.60;99.90
22974;DHT22;11653;50.848;4.584;2022-12-10T08:26:07;1.70;99.90
22974;DHT22;11653;50.848;4.584;2022-12-10T08:28:34;1.70;99.90
22974;DHT22;11653;50.848;4.584;2022-12-10T08:30:59;1.80;99.90
22974;DHT22;11653;50.848;4.584;2022-12-10T08:33:25;1.80;99.90
22974;DHT22;11653;50.848;4.584;2022-12-10T08:35:51;1.70;99.90
22974;DHT22;11653;50.848;4.584;2022-12-10T08:38:16;1.80;99.90
22974;DHT22;11653;50.848;4.584;2022-12-10T08:40:42;1.80;99.90
22974;DHT22;11653;50.848;4.584;2022-12-10T08:43:08;1.80;99.90
22974;DHT22;11653;50.848;4.584;2022-12-10T08:45:34;1.60;99.90
22974;DHT22;11653;50.848;4.584;2022-12-10T08:48:01;1.50;99.90
22974;DHT22;11653;50.848;4.584;2022-12-10T08:50:27;1.40;99.90
22974;DHT22;11653;50.848;4.584;2022-12-10T08:52:53;1.20;99.90
22974;DHT22;11653;50.848;4.584;2022-12-10T08:55:19;1.10;99.90
22974;DHT22;11653;50.848;4.584;2022-12-10T08:57:44;1.00;99.90
22974;DHT22;11653;50.848;4.584;2022-12-10T09:00:11;1.00;99.90
22974;DHT22;11653;50.848;4.584;2022-12-10T09:02:38;1.00;99.90
22974;DHT22;11653;50.848;4.584;2022-12-10T09:05:04;1.00;99.90
22974;DHT22;11653;50.848;4.584;2022-12-10T09:07:29;1.10;99.90
22974;DHT22;11653;50.848;4.584;2022-12-10T09:09:55;1.00;99.90
22974;DHT22;11653;50.848;4.584;2022-12-10T09:12:23;1.00;99.90
22974;DHT22;11653;50.848;4.584;2022-12-10T09:14:49;1.00;99.90
22974;DHT22;11653;50.848;4.584;2022-12-10T09:17:15;1.10;99.90
22974;DHT22;11653;50.848;4.584;2022-12-10T09:19:40;1.10;99.90
22974;DHT22;11653;50.848;4.584;2022-12-10T09:22:06;1.20;99.90
22974;DHT22;11653;50.848;4.584;2022-12-10T09:24:32;1.30;99.90
22974;DHT22;11653;50.848;4.584;2022-12-10T09:26:58;1.40;99.90
22974;DHT22;11653;50.848;4.584;2022-12-10T09:29:23;1.40;99.90
22974;DHT22;11653;50.848;4.584;2022-12-10T09:31:52;1.30;99.90
22974;DHT22;11653;50.848;4.584;2022-12-10T09:34:18;1.30;99.90
22974;DHT22;11653;50.848;4.584;2022-12-10T09:36:44;1.30;99.90
22974;DHT22;11653;50.848;4.584;2022-12-10T09:39:10;1.50;99.90
22974;DHT22;11653;50.848;4.584;2022-12-10T09:44:32;1.60;99.90
22974;DHT22;11653;50.848;4.584;2022-12-10T09:47:05;1.60;99.90
22974;DHT22;11653;50.848;4.584;2022-12-10T09:49:54;1.70;99.90
22974;DHT22;11653;50.848;4.584;2022-12-10T09:52:23;1.50;99.90
22974;DHT22;11653;50.848;4.584;2022-12-10T09:54:52;1.40;99.90
22974;DHT22;11653;50.848;4.584;2022-12-10T09:59:49;1.60;99.90
22974;DHT22;11653;50.848;4.584;2022-12-10T10:04:44;1.90;99.90
22974;DHT22;11653;50.848;4.584;2022-12-10T10:07:30;1.90;99.90
22974;DHT22;11653;50.848;4.584;2022-12-10T10:09:59;1.90;99.90
22974;DHT22;11653;50.848;4.584;2022-12-10T10:12:31;1.70;99.90
22974;DHT22;11653;50.848;4.584;2022-12-10T10:15:09;1.70;99.90
22974;DHT22;11653;50.848;4.584;2022-12-10T10:17:36;1.60;99.90
22974;DHT22;11653;50.848;4.584;2022-12-10T10:20:03;1.70;99.90
22974;DHT22;11653;50.848;4.584;2022-12-10T10:22:30;1.80;99.90
22974;DHT22;11653;50.848;4.584;2022-12-10T10:24:56;2.00;99.90
22974;DHT22;11653;50.848;4.584;2022-12-10T10:27:29;2.10;99.90
22974;DHT22;11653;50.848;4.584;2022-12-10T10:29:57;2.10;99.90
22974;DHT22;11653;50.848;4.584;2022-12-10T10:32:27;2.10;99.90
22974;DHT22;11653;50.848;4.584;2022-12-10T10:35:22;2.20;99.90
22974;DHT22;11653;50.848;4.584;2022-12-10T10:37:49;2.30;99.90
22974;DHT22;11653;50.848;4.584;2022-12-10T10:40:41;2.40;99.90
22974;DHT22;11653;50.848;4.584;2022-12-10T10:43:14;2.50;99.90
22974;DHT22;11653;50.848;4.584;2022-12-10T10:45:43;2.50;99.90
22974;DHT22;11653;50.848;4.584;2022-12-10T10:48:16;2.60;99.90
22974;DHT22;11653;50.848;4.584;2022-12-10T10:51:15;2.70;99.90
22974;DHT22;11653;50.848;4.584;2022-12-10T10:53:47;2.70;99.90
22974;DHT22;11653;50.848;4.584;2022-12-10T10:56:29;2.70;99.90
22974;DHT22;11653;50.848;4.584;2022-12-10T10:59:07;2.60;99.90
22974;DHT22;11653;50.848;4.584;2022-12-10T11:01:52;2.60;99.90
22974;DHT22;11653;50.848;4.584;2022-12-10T11:04:52;2.60;99.90
22974;DHT22;11653;50.848;4.584;2022-12-10T11:07:24;2.70;99.90
22974;DHT22;11653;50.848;4.584;2022-12-10T11:09:53;2.70;99.90
22974;DHT22;11653;50.848;4.584;2022-12-10T11:12:39;2.80;99.90
22974;DHT22;11653;50.848;4.584;2022-12-10T11:15:32;2.80;99.90
22974;DHT22;11653;50.848;4.584;2022-12-10T11:17:59;2.70;99.90
22974;DHT22;11653;50.848;4.584;2022-12-10T11:20:31;2.70;99.90
22974;DHT22;11653;50.848;4.584;2022-12-10T11:22:59;2.70;99.90
22974;DHT22;11653;50.848;4.584;2022-12-10T11:28:32;2.90;99.90
22974;DHT22;11653;50.848;4.584;2022-12-10T11:41:35;2.80;99.90
22974;DHT22;11653;50.848;4.584;2022-12-10T11:49:29;2.90;99.90
22974;DHT22;11653;50.848;4.584;2022-12-10T11:52:25;3.00;99.90
22974;DHT22;11653;50.848;4.584;2022-12-10T11:55:31;3.00;99.90
22974;DHT22;11653;50.848;4.584;2022-12-10T11:58:27;3.10;99.90
22974;DHT22;11653;50.848;4.584;2022-12-10T12:03:57;3.10;99.90
22974;DHT22;11653;50.848;4.584;2022-12-10T12:06:41;3.10;99.90
22974;DHT22;11653;50.848;4.584;2022-12-10T12:14:55;3.50;99.90
22974;DHT22;11653;50.848;4.584;2022-12-10T12:17:35;3.60;99.90
22974;DHT22;11653;50.848;4.584;2022-12-10T12:20:15;3.50;99.90
22974;DHT22;11653;50.848;4.584;2022-12-10T12:22:47;3.50;99.90
22974;DHT22;11653;50.848;4.584;2022-12-10T12:30:46;3.40;99.90
22974;DHT22;11653;50.848;4.584;2022-12-10T12:33:41;3.20;99.90
22974;DHT22;11653;50.848;4.584;2022-12-10T12:36:20;3.10;99.90
22974;DHT22;11653;50.848;4.584;2022-12-10T12:47:11;3.30;99.90
22974;DHT22;11653;50.848;4.584;2022-12-10T12:49:40;3.60;99.90
22974;DHT22;11653;50.848;4.584;2022-12-10T12:52:38;3.60;99.90
22974;DHT22;11653;50.848;4.584;2022-12-10T12:57:51;3.50;99.90
22974;DHT22;11653;50.848;4.584;2022-12-10T13:00:19;3.30;99.90
22974;DHT22;11653;50.848;4.584;2022-12-10T13:05:49;3.40;99.90
22974;DHT22;11653;50.848;4.584;2022-12-10T13:13:40;3.60;99.90
22974;DHT22;11653;50.848;4.584;2022-12-10T13:27:10;3.70;99.90
22974;DHT22;11653;50.848;4.584;2022-12-10T13:29:56;3.60;99.90
22974;DHT22;11653;50.848;4.584;2022-12-10T13:46:33;3.70;99.90
22974;DHT22;11653;50.848;4.584;2022-12-10T13:49:02;3.70;99.90
22974;DHT22;11653;50.848;4.584;2022-12-10T13:51:36;3.70;99.90
22974;DHT22;11653;50.848;4.584;2022-12-10T14:02:42;3.60;99.90
22974;DHT22;11653;50.848;4.584;2022-12-10T14:05:11;3.70;99.90
22974;DHT22;11653;50.848;4.584;2022-12-10T14:07:43;3.60;99.90
22974;DHT22;11653;50.848;4.584;2022-12-10T14:10:15;3.80;99.90
22974;DHT22;11653;50.848;4.584;2022-12-10T14:12:42;3.70;99.90
22974;DHT22;11653;50.848;4.584;2022-12-10T14:15:21;3.70;99.90
22974;DHT22;11653;50.848;4.584;2022-12-10T14:20:44;3.70;99.90
22974;DHT22;11653;50.848;4.584;2022-12-10T14:23:29;3.80;99.90
22974;DHT22;11653;50.848;4.584;2022-12-10T14:26:11;3.90;99.90
22974;DHT22;11653;50.848;4.584;2022-12-10T14:31:17;3.80;99.90
22974;DHT22;11653;50.848;4.584;2022-12-10T14:33:45;3.90;99.90
22974;DHT22;11653;50.848;4.584;2022-12-10T14:36:21;3.80;99.90
22974;DHT22;11653;50.848;4.584;2022-12-10T14:38:49;3.70;99.90
22974;DHT22;11653;50.848;4.584;2022-12-10T14:41:20;3.60;99.90
22974;DHT22;11653;50.848;4.584;2022-12-10T14:43:47;3.50;99.90
22974;DHT22;11653;50.848;4.584;2022-12-10T14:46:18;3.50;99.90
22974;DHT22;11653;50.848;4.584;2022-12-10T14:48:48;3.60;99.90
22974;DHT22;11653;50.848;4.584;2022-12-10T14:51:17;3.70;99.90
22974;DHT22;11653;50.848;4.584;2022-12-10T14:53:44;3.60;99.90
22974;DHT22;11653;50.848;4.584;2022-12-10T14:56:32;3.50;99.90
22974;DHT22;11653;50.848;4.584;2022-12-10T14:59:15;3.60;99.90
22974;DHT22;11653;50.848;4.584;2022-12-10T15:01:49;3.50;99.90
22974;DHT22;11653;50.848;4.584;2022-12-10T15:04:17;3.60;99.90
22974;DHT22;11653;50.848;4.584;2022-12-10T15:06:44;3.60;99.90
22974;DHT22;11653;50.848;4.584;2022-12-10T15:09:23;3.60;99.90
22974;DHT22;11653;50.848;4.584;2022-12-10T15:11:58;3.60;99.90
22974;DHT22;11653;50.848;4.584;2022-12-10T15:14:25;3.70;99.90
22974;DHT22;11653;50.848;4.584;2022-12-10T15:16:55;3.70;99.90
22974;DHT22;11653;50.848;4.584;2022-12-10T15:19:24;3.70;99.90
22974;DHT22;11653;50.848;4.584;2022-12-10T15:21:52;3.50;99.90
22974;DHT22;11653;50.848;4.584;2022-12-10T15:24:36;3.40;99.90
22974;DHT22;11653;50.848;4.584;2022-12-10T15:27:18;3.40;99.90
22974;DHT22;11653;50.848;4.584;2022-12-10T15:29:44;3.40;99.90
22974;DHT22;11653;50.848;4.584;2022-12-10T15:32:12;3.40;99.90
22974;DHT22;11653;50.848;4.584;2022-12-10T15:34:49;3.50;99.90
22974;DHT22;11653;50.848;4.584;2022-12-10T15:37:35;3.30;99.90
22974;DHT22;11653;50.848;4.584;2022-12-10T15:40:06;3.40;99.90
22974;DHT22;11653;50.848;4.584;2022-12-10T15:45:20;3.30;99.90
22974;DHT22;11653;50.848;4.584;2022-12-10T15:47:47;3.40;99.90
22974;DHT22;11653;50.848;4.584;2022-12-10T15:50:12;3.30;99.90
22974;DHT22;11653;50.848;4.584;2022-12-10T15:52:38;3.40;99.90
22974;DHT22;11653;50.848;4.584;2022-12-10T15:55:05;3.50;99.90
22974;DHT22;11653;50.848;4.584;2022-12-10T15:57:33;3.50;99.90
22974;DHT22;11653;50.848;4.584;2022-12-10T16:00:04;3.50;99.90
22974;DHT22;11653;50.848;4.584;2022-12-10T16:05:31;3.40;99.90
22974;DHT22;11653;50.848;4.584;2022-12-10T16:10:37;3.40;99.90
22974;DHT22;11653;50.848;4.584;2022-12-10T16:13:44;3.40;99.90
22974;DHT22;11653;50.848;4.584;2022-12-10T16:16:10;3.50;99.90
22974;DHT22;11653;50.848;4.584;2022-12-10T16:18:38;3.50;99.90
22974;DHT22;11653;50.848;4.584;2022-12-10T16:21:05;3.50;99.90
22974;DHT22;11653;50.848;4.584;2022-12-10T16:23:32;3.40;99.90
22974;DHT22;11653;50.848;4.584;2022-12-10T16:25:58;3.30;99.90
22974;DHT22;11653;50.848;4.584;2022-12-10T16:28:24;3.40;99.90
22974;DHT22;11653;50.848;4.584;2022-12-10T16:30:56;3.40;99.90
22974;DHT22;11653;50.848;4.584;2022-12-10T16:33:23;3.50;99.90
22974;DHT22;11653;50.848;4.584;2022-12-10T16:35:51;3.50;99.90
22974;DHT22;11653;50.848;4.584;2022-12-10T16:38:18;3.50;99.90
22974;DHT22;11653;50.848;4.584;2022-12-10T16:40:45;3.50;99.90
22974;DHT22;11653;50.848;4.584;2022-12-10T16:43:19;3.40;99.90
22974;DHT22;11653;50.848;4.584;2022-12-10T16:45:46;3.30;99.90
22974;DHT22;11653;50.848;4.584;2022-12-10T16:48:12;3.30;99.90
22974;DHT22;11653;50.848;4.584;2022-12-10T16:50:38;3.40;99.90
22974;DHT22;11653;50.848;4.584;2022-12-10T16:53:19;3.40;99.90
22974;DHT22;11653;50.848;4.584;2022-12-10T16:55:46;3.30;99.90
22974;DHT22;11653;50.848;4.584;2022-12-10T16:58:14;3.30;99.90
22974;DHT22;11653;50.848;4.584;2022-12-10T17:00:41;3.20;99.90
22974;DHT22;11653;50.848;4.584;2022-12-10T17:03:11;3.10;99.90
22974;DHT22;11653;50.848;4.584;2022-12-10T17:05:55;3.20;99.90
22974;DHT22;11653;50.848;4.584;2022-12-10T17:08:21;3.10;99.90
22974;DHT22;11653;50.848;4.584;2022-12-10T17:10:48;3.10;99.90
22974;DHT22;11653;50.848;4.584;2022-12-10T17:13:33;3.30;99.90
22974;DHT22;11653;50.848;4.584;2022-12-10T17:15:59;3.20;99.90
22974;DHT22;11653;50.848;4.584;2022-12-10T17:18:26;3.30;99.90
22974;DHT22;11653;50.848;4.584;2022-12-10T17:20:51;3.30;99.90
22974;DHT22;11653;50.848;4.584;2022-12-10T17:23:17;3.40;99.90
22974;DHT22;11653;50.848;4.584;2022-12-10T17:25:43;3.40;99.90
22974;DHT22;11653;50.848;4.584;2022-12-10T17:28:18;3.30;99.90
22974;DHT22;11653;50.848;4.584;2022-12-10T17:30:45;3.20;99.90
22974;DHT22;11653;50.848;4.584;2022-12-10T17:33:12;3.20;99.90
22974;DHT22;11653;50.848;4.584;2022-12-10T17:35:41;3.20;99.90
22974;DHT22;11653;50.848;4.584;2022-12-10T17:38:16;3.20;99.90
22974;DHT22;11653;50.848;4.584;2022-12-10T17:40:42;3.20;99.90
22974;DHT22;11653;50.848;4.584;2022-12-10T17:43:08;3.20;99.90
22974;DHT22;11653;50.848;4.584;2022-12-10T17:45:34;3.30;99.90
22974;DHT22;11653;50.848;4.584;2022-12-10T17:48:00;3.30;99.90
22974;DHT22;11653;50.848;4.584;2022-12-10T17:50:29;3.30;99.90
22974;DHT22;11653;50.848;4.584;2022-12-10T17:52:56;3.40;99.90
22974;DHT22;11653;50.848;4.584;2022-12-10T17:55:24;3.50;99.90
22974;DHT22;11653;50.848;4.584;2022-12-10T17:57:49;3.40;99.90
22974;DHT22;11653;50.848;4.584;2022-12-10T18:00:18;3.50;99.90
22974;DHT22;11653;50.848;4.584;2022-12-10T18:02:45;3.50;99.90
22974;DHT22;11653;50.848;4.584;2022-12-10T18:05:11;3.50;99.90
22974;DHT22;11653;50.848;4.584;2022-12-10T18:07:36;3.40;99.90
22974;DHT22;11653;50.848;4.584;2022-12-10T18:10:09;3.50;99.90
22974;DHT22;11653;50.848;4.584;2022-12-10T18:12:38;3.50;99.90
22974;DHT22;11653;50.848;4.584;2022-12-10T18:15:04;3.60;99.90